createdAt,value
2023-02-14T00:02:07.400Z,22.27
2023-02-14T00:04:38.211Z,22.27
2023-02-14T00:07:06.309Z,22.73
2023-02-14T00:09:33.763Z,24.03
2023-02-14T00:12:01.218Z,24.73
2023-02-14T00:14:47.441Z,23.97
2023-02-14T00:17:14.922Z,22.97
2023-02-14T00:19:42.396Z,23.80
2023-02-14T00:22:09.879Z,23.50
2023-02-14T00:24:37.344Z,23.87
2023-02-14T00:27:04.977Z,23.30
2023-02-14T00:29:34.230Z,25.00
2023-02-14T00:32:02.270Z,23.50
2023-02-14T00:34:30.004Z,26.37
2023-02-14T00:36:57.499Z,25.43
2023-02-14T00:39:24.980Z,25.03
2023-02-14T00:41:52.467Z,27.53
2023-02-14T00:44:19.957Z,26.70
2023-02-14T00:46:48.828Z,24.93
2023-02-14T00:49:16.451Z,27.63
2023-02-14T00:51:43.954Z,29.77
2023-02-14T00:54:11.504Z,28.30
2023-02-14T00:56:39.007Z,29.17
2023-02-14T00:59:06.491Z,30.87
2023-02-14T01:01:34.005Z,29.43
2023-02-14T01:04:02.898Z,30.90
2023-02-14T01:06:30.386Z,29.97
2023-02-14T01:08:58.135Z,29.17
2023-02-14T01:11:26.263Z,27.30
2023-02-14T01:13:58.556Z,29.27
2023-02-14T01:16:27.938Z,26.93
2023-02-14T01:18:56.061Z,26.37
2023-02-14T01:21:27.040Z,24.40
2023-02-14T01:23:56.359Z,29.03
2023-02-14T01:26:25.521Z,28.97
2023-02-14T01:28:54.531Z,28.67
2023-02-14T01:31:24.705Z,28.70
2023-02-14T01:33:52.606Z,26.97
2023-02-14T01:36:22.701Z,29.47
2023-02-14T01:38:54.864Z,28.80
2023-02-14T01:41:23.415Z,28.37
2023-02-14T01:43:52.510Z,30.40
2023-02-14T01:46:20.493Z,28.67
2023-02-14T01:48:48.727Z,28.03
2023-02-14T01:51:19.082Z,28.57
2023-02-14T01:53:46.769Z,27.87
2023-02-14T01:56:20.638Z,28.10
2023-02-14T01:58:53.689Z,27.57
2023-02-14T02:01:22.017Z,29.47
2023-02-14T02:03:52.341Z,25.80
2023-02-14T02:06:24.960Z,26.40
2023-02-14T02:09:03.380Z,28.43
2023-02-14T02:11:32.190Z,27.73
2023-02-14T02:13:59.663Z,27.00
2023-02-14T02:16:49.025Z,25.23
2023-02-14T02:19:57.768Z,26.77
2023-02-14T02:22:49.198Z,28.27
2023-02-14T02:25:37.939Z,27.77
2023-02-14T02:28:30.515Z,27.00
2023-02-14T02:31:22.034Z,25.83
2023-02-14T02:34:13.539Z,26.03
2023-02-14T02:37:00.085Z,27.97
2023-02-14T02:39:40.733Z,27.27
2023-02-14T02:42:20.819Z,25.70
2023-02-14T02:44:54.938Z,25.87
2023-02-14T02:47:29.493Z,24.70
2023-02-14T02:50:23.907Z,26.60
2023-02-14T02:53:07.036Z,27.43
2023-02-14T02:56:02.784Z,25.40
2023-02-14T02:58:36.103Z,27.63
2023-02-14T03:01:10.160Z,26.33
2023-02-14T03:03:58.535Z,24.53
2023-02-14T03:06:25.994Z,25.17
2023-02-14T03:08:54.810Z,24.57
2023-02-14T03:11:22.604Z,26.00
2023-02-14T03:14:14.135Z,25.73
2023-02-14T03:17:00.123Z,24.20
2023-02-14T03:19:55.326Z,25.77
2023-02-14T03:22:33.639Z,24.63
2023-02-14T03:25:10.779Z,26.27
2023-02-14T03:27:45.872Z,26.03
2023-02-14T03:30:24.527Z,26.20
2023-02-14T03:32:59.642Z,26.27
2023-02-14T03:35:33.408Z,23.23
2023-02-14T03:38:08.606Z,24.47
2023-02-14T03:40:41.857Z,23.23
2023-02-14T03:43:13.210Z,24.13
2023-02-14T03:45:45.296Z,25.73
2023-02-14T03:48:15.243Z,25.13
2023-02-14T03:50:45.437Z,24.53
2023-02-14T03:53:16.010Z,23.10
2023-02-14T03:55:52.286Z,25.70
2023-02-14T03:58:25.659Z,23.90
2023-02-14T04:01:00.044Z,23.83
2023-02-14T04:03:30.716Z,25.33
2023-02-14T04:05:58.711Z,26.90
2023-02-14T04:08:28.451Z,24.20
2023-02-14T04:11:00.551Z,27.53
2023-02-14T04:13:28.972Z,27.60
2023-02-14T04:15:56.612Z,27.87
2023-02-14T04:18:41.649Z,24.13
2023-02-14T04:21:09.141Z,23.90
2023-02-14T04:23:36.617Z,24.33
2023-02-14T04:26:05.910Z,25.47
2023-02-14T04:28:33.835Z,26.50
2023-02-14T04:31:03.561Z,27.50
2023-02-14T04:33:31.655Z,25.43
2023-02-14T04:35:59.234Z,24.93
2023-02-14T04:38:26.922Z,28.37
2023-02-14T04:40:54.391Z,24.83
2023-02-14T04:43:23.196Z,26.57
2023-02-14T04:45:50.656Z,27.60
2023-02-14T04:48:18.108Z,25.00
2023-02-14T04:50:45.578Z,31.90
2023-02-14T04:53:13.032Z,34.30
2023-02-14T04:55:40.498Z,27.50
2023-02-14T04:58:07.952Z,28.17
2023-02-14T05:00:36.823Z,28.37
2023-02-14T05:03:04.485Z,27.70
2023-02-14T05:05:31.966Z,31.27
2023-02-14T05:07:59.435Z,26.33
2023-02-14T05:10:27.074Z,25.13
2023-02-14T05:12:54.538Z,27.90
2023-02-14T05:15:21.983Z,25.87
2023-02-14T05:17:50.815Z,28.27
2023-02-14T05:20:18.624Z,26.20
2023-02-14T05:22:46.109Z,27.50
2023-02-14T05:25:13.559Z,24.67
2023-02-14T05:27:41.066Z,26.30
2023-02-14T05:30:09.916Z,25.63
2023-02-14T05:32:37.476Z,24.87
2023-02-14T05:35:07.313Z,26.27
2023-02-14T05:37:34.797Z,22.97
2023-02-14T05:40:02.258Z,23.40
2023-02-14T05:42:29.733Z,23.93
2023-02-14T05:44:57.192Z,23.90
2023-02-14T05:47:24.665Z,21.80
2023-02-14T05:49:52.130Z,23.10
2023-02-14T05:52:20.909Z,23.73
2023-02-14T05:54:48.364Z,21.87
2023-02-14T05:57:15.964Z,24.47
2023-02-14T05:59:43.440Z,27.43
2023-02-14T06:02:11.051Z,26.77
2023-02-14T06:04:38.580Z,20.90
2023-02-14T06:07:06.163Z,22.93
2023-02-14T06:09:35.370Z,26.17
2023-02-14T06:12:02.871Z,23.80
2023-02-14T06:14:30.341Z,21.00
2023-02-14T06:16:57.828Z,21.50
2023-02-14T06:19:25.319Z,22.43
2023-02-14T06:21:52.780Z,24.93
2023-02-14T06:24:20.289Z,22.60
2023-02-14T06:26:49.082Z,29.43
2023-02-14T06:29:18.374Z,29.43
2023-02-14T06:31:45.954Z,28.40
2023-02-14T06:34:15.897Z,30.97
2023-02-14T06:36:43.611Z,30.87
2023-02-14T06:39:11.163Z,25.93
2023-02-14T06:41:38.655Z,30.27
2023-02-14T06:44:07.545Z,26.97
2023-02-14T06:46:35.091Z,26.77
2023-02-14T06:49:02.558Z,28.60
2023-02-14T06:51:30.023Z,26.57
2023-02-14T06:53:57.497Z,30.03
2023-02-14T06:56:24.972Z,29.17
2023-02-14T06:58:52.413Z,29.97
2023-02-14T07:01:21.240Z,30.00
2023-02-14T07:03:48.721Z,28.10
2023-02-14T07:06:16.182Z,28.43
2023-02-14T07:08:43.624Z,30.00
2023-02-14T07:11:11.178Z,31.37
2023-02-14T07:13:38.670Z,27.57
2023-02-14T07:16:06.703Z,26.87
2023-02-14T07:18:35.510Z,29.67
2023-02-14T07:21:03.187Z,30.83
2023-02-14T07:23:30.815Z,32.20
2023-02-14T07:25:58.297Z,26.17
2023-02-14T07:28:25.799Z,31.33
2023-02-14T07:30:53.513Z,26.00
2023-02-14T07:33:21.025Z,29.40
2023-02-14T07:35:49.834Z,31.40
2023-02-14T07:38:17.340Z,28.87
2023-02-14T07:40:44.837Z,26.53
2023-02-14T07:43:12.328Z,26.77
2023-02-14T07:45:39.801Z,29.13
2023-02-14T07:48:07.438Z,27.23
2023-02-14T07:50:34.885Z,26.40
2023-02-14T07:53:03.793Z,30.10
2023-02-14T07:55:31.248Z,29.53
2023-02-14T07:57:58.731Z,24.83
2023-02-14T08:00:26.430Z,24.53
2023-02-14T08:02:55.930Z,22.53
2023-02-14T08:05:23.512Z,23.57
2023-02-14T08:07:51.362Z,22.37
2023-02-14T08:10:20.389Z,24.57
2023-02-14T08:13:00.224Z,23.20
2023-02-14T08:15:46.230Z,28.93
2023-02-14T08:18:13.904Z,30.53
2023-02-14T08:20:41.409Z,24.47
2023-02-14T08:23:08.893Z,21.70
2023-02-14T08:25:37.871Z,23.13
2023-02-14T08:28:05.919Z,24.47
2023-02-14T08:30:33.898Z,23.70
2023-02-14T08:33:01.388Z,24.87
2023-02-14T08:35:28.863Z,22.13
2023-02-14T08:37:56.347Z,21.33
2023-02-14T08:40:23.957Z,23.77
2023-02-14T08:42:52.781Z,19.10
2023-02-14T08:45:20.574Z,21.40
2023-02-14T08:47:48.554Z,23.73
2023-02-14T08:50:18.289Z,24.20
2023-02-14T08:52:46.072Z,23.80
2023-02-14T08:55:14.989Z,27.93
2023-02-14T08:57:42.576Z,21.57
2023-02-14T09:00:12.523Z,22.90
2023-02-14T09:02:39.997Z,25.07
2023-02-14T09:05:09.327Z,21.60
2023-02-14T09:07:36.810Z,22.30
2023-02-14T09:10:04.460Z,20.50
2023-02-14T09:12:31.950Z,25.33
2023-02-14T09:14:59.430Z,20.67
2023-02-14T09:17:28.388Z,21.60
2023-02-14T09:19:55.882Z,22.30
2023-02-14T09:22:23.451Z,23.60
2023-02-14T09:24:50.930Z,23.87
2023-02-14T09:27:18.407Z,21.27
2023-02-14T09:29:45.915Z,26.63
2023-02-14T09:32:13.519Z,24.27
2023-02-14T09:35:00.120Z,19.97
2023-02-14T09:37:45.413Z,22.67
2023-02-14T09:40:14.609Z,23.63
2023-02-14T09:42:52.388Z,24.77
2023-02-14T09:45:22.906Z,20.33
2023-02-14T09:47:53.972Z,23.27
2023-02-14T09:50:26.457Z,16.97
2023-02-14T09:52:57.924Z,17.43
2023-02-14T09:55:31.617Z,16.07
2023-02-14T09:58:09.928Z,14.23
2023-02-14T10:00:44.331Z,15.00
2023-02-14T10:03:39.924Z,14.03
2023-02-14T10:06:20.265Z,15.33
2023-02-14T10:08:56.633Z,18.33
2023-02-14T10:11:25.731Z,17.80
2023-02-14T10:13:58.789Z,15.10
2023-02-14T10:16:31.101Z,16.43
2023-02-14T10:19:02.369Z,15.43
2023-02-14T10:21:36.622Z,13.53
2023-02-14T10:24:12.535Z,20.73
2023-02-14T10:26:41.603Z,35.17
2023-02-14T10:29:14.790Z,62.03
2023-02-14T10:31:50.211Z,35.93
2023-02-14T10:34:25.684Z,19.20
2023-02-14T10:37:13.056Z,20.43
2023-02-14T10:39:57.370Z,24.07
2023-02-14T10:42:34.846Z,20.20
2023-02-14T10:45:13.825Z,31.63
2023-02-14T10:47:49.938Z,21.90
2023-02-14T10:50:22.845Z,21.43
2023-02-14T10:53:04.675Z,15.20
2023-02-14T10:55:40.713Z,20.97
2023-02-14T10:58:13.409Z,48.37
2023-02-14T11:00:50.674Z,84.23
2023-02-14T11:03:18.768Z,11.30
2023-02-14T11:05:48.899Z,11.33
2023-02-14T11:08:24.941Z,11.20
2023-02-14T11:10:53.039Z,11.70
2023-02-14T11:13:32.567Z,11.70
2023-02-14T11:16:03.212Z,12.30
2023-02-14T11:18:33.111Z,13.03
2023-02-14T11:21:03.140Z,11.33
2023-02-14T11:23:36.694Z,15.83
2023-02-14T11:26:06.212Z,14.53
2023-02-14T11:28:35.608Z,16.53
2023-02-14T11:31:04.354Z,15.50
2023-02-14T11:33:38.404Z,17.60
2023-02-14T11:36:11.936Z,13.90
2023-02-14T11:38:42.115Z,14.50
2023-02-14T11:41:12.962Z,10.60
2023-02-14T11:43:41.581Z,12.40
2023-02-14T11:46:15.845Z,14.13
2023-02-14T11:48:59.436Z,14.57
2023-02-14T11:51:30.637Z,16.17
2023-02-14T11:54:04.639Z,17.87
2023-02-14T11:56:47.846Z,18.97
2023-02-14T11:59:26.982Z,17.83
2023-02-14T12:01:55.548Z,19.40
2023-02-14T12:04:29.104Z,19.60
2023-02-14T12:07:15.037Z,20.27
2023-02-14T12:09:44.266Z,22.57
2023-02-14T12:12:22.124Z,23.53
2023-02-14T12:14:49.805Z,23.00
2023-02-14T12:17:26.802Z,20.33
2023-02-14T12:20:01.531Z,18.87
2023-02-14T12:22:33.864Z,15.70
2023-02-14T12:25:13.730Z,14.00
2023-02-14T12:27:49.436Z,10.40
2023-02-14T12:30:20.236Z,17.40
2023-02-14T12:32:50.270Z,15.37
2023-02-14T12:35:20.372Z,14.80
2023-02-14T12:38:04.727Z,13.97
2023-02-14T12:40:44.119Z,17.00
2023-02-14T12:43:35.142Z,16.97
2023-02-14T12:46:32.486Z,15.13
2023-02-14T12:49:31.287Z,21.83
2023-02-14T12:52:10.714Z,22.53
2023-02-14T12:54:50.333Z,23.27
2023-02-14T12:57:31.913Z,19.67
2023-02-14T13:00:15.935Z,22.07
2023-02-14T13:03:34.675Z,25.40
2023-02-14T13:06:08.229Z,24.67
2023-02-14T13:08:51.184Z,22.70
2023-02-14T13:11:37.998Z,26.90
2023-02-14T13:14:21.124Z,24.17
2023-02-14T13:16:55.805Z,22.70
2023-02-14T13:19:36.216Z,24.77
2023-02-14T13:22:05.968Z,20.47
2023-02-14T13:24:39.176Z,22.53
2023-02-14T13:27:10.681Z,20.73
2023-02-14T13:29:45.845Z,22.13
2023-02-14T13:32:17.639Z,27.03
2023-02-14T13:34:47.690Z,23.77
2023-02-14T13:37:19.196Z,21.30
2023-02-14T13:39:49.771Z,17.50
2023-02-14T13:42:50.642Z,12.03
2023-02-14T13:45:53.831Z,14.60
2023-02-14T13:48:23.593Z,16.70
2023-02-14T13:50:54.676Z,15.03
2023-02-14T13:53:37.643Z,14.23
2023-02-14T13:56:07.961Z,16.90
2023-02-14T13:58:36.320Z,18.43
2023-02-14T14:01:32.162Z,13.50
2023-02-14T14:04:00.890Z,15.43
2023-02-14T14:06:28.684Z,13.63
2023-02-14T14:08:58.430Z,12.60
2023-02-14T14:12:00.612Z,15.53
2023-02-14T14:14:39.829Z,16.20
2023-02-14T14:17:27.481Z,10.90
2023-02-14T14:19:55.416Z,12.37
2023-02-14T14:22:23.195Z,10.33
2023-02-14T14:24:57.098Z,10.50
2023-02-14T14:27:26.779Z,10.60
2023-02-14T14:29:56.283Z,10.30
2023-02-14T14:32:29.813Z,9.27
2023-02-14T14:34:59.368Z,10.50
2023-02-14T14:37:29.414Z,9.20
2023-02-14T14:39:59.152Z,11.50
2023-02-14T14:42:29.778Z,10.57
2023-02-14T14:45:02.055Z,10.13
2023-02-14T14:47:38.710Z,11.07
2023-02-14T14:50:10.201Z,10.87
2023-02-14T14:52:42.333Z,11.30
2023-02-14T14:55:19.190Z,11.50
2023-02-14T14:57:50.952Z,10.10
2023-02-14T15:00:22.625Z,10.90
2023-02-14T15:03:00.941Z,11.20
2023-02-14T15:05:30.817Z,10.80
2023-02-14T15:07:58.732Z,11.20
2023-02-14T15:10:28.730Z,11.77
2023-02-14T15:13:17.040Z,10.63
2023-02-14T15:15:50.746Z,11.30
2023-02-14T15:18:21.560Z,13.37
2023-02-14T15:20:50.498Z,14.27
2023-02-14T15:23:21.051Z,12.60
2023-02-14T15:25:49.923Z,13.23
2023-02-14T15:28:28.217Z,19.67
2023-02-14T15:31:01.917Z,18.10
2023-02-14T15:33:32.408Z,19.60
2023-02-14T15:36:04.212Z,18.50
2023-02-14T15:38:33.762Z,18.53
2023-02-14T15:41:02.491Z,20.80
2023-02-14T15:43:32.402Z,19.63
2023-02-14T15:46:15.292Z,18.90
2023-02-14T15:48:46.443Z,18.30
2023-02-14T15:51:20.066Z,18.53
2023-02-14T15:53:52.839Z,17.10
2023-02-14T15:56:24.794Z,17.53
2023-02-14T15:58:59.656Z,15.37
2023-02-14T16:01:27.970Z,15.10
2023-02-14T16:03:59.649Z,15.43
2023-02-14T16:06:33.951Z,14.70
2023-02-14T16:09:01.778Z,14.40
2023-02-14T16:11:31.441Z,16.57
2023-02-14T16:13:59.346Z,16.30
2023-02-14T16:16:26.936Z,19.00
2023-02-14T16:18:56.456Z,16.97
2023-02-14T16:21:27.547Z,17.87
2023-02-14T16:24:13.660Z,21.73
2023-02-14T16:26:42.644Z,17.63
2023-02-14T16:29:11.896Z,16.00
2023-02-14T16:31:51.936Z,14.97
2023-02-14T16:34:28.777Z,15.17
2023-02-14T16:36:57.614Z,15.13
2023-02-14T16:39:26.269Z,15.07
2023-02-14T16:41:57.270Z,15.57
2023-02-14T16:44:24.723Z,15.70
2023-02-14T16:46:52.209Z,14.97
2023-02-14T16:49:19.702Z,17.67
2023-02-14T16:51:48.519Z,18.93
2023-02-14T16:54:20.888Z,20.47
2023-02-14T16:56:52.869Z,20.50
2023-02-14T16:59:20.366Z,23.23
2023-02-14T17:01:48.711Z,17.57
2023-02-14T17:04:16.640Z,15.33
2023-02-14T17:06:49.313Z,16.07
2023-02-14T17:09:24.206Z,15.97
2023-02-14T17:11:55.740Z,14.53
2023-02-14T17:14:26.235Z,16.87
2023-02-14T17:16:54.788Z,21.70
2023-02-14T17:19:22.495Z,16.93
2023-02-14T17:21:50.098Z,19.67
2023-02-14T17:24:19.141Z,14.60
2023-02-14T17:26:46.620Z,13.43
2023-02-14T17:29:14.300Z,24.03
2023-02-14T17:31:41.901Z,25.90
2023-02-14T17:34:10.796Z,19.70
2023-02-14T17:36:38.543Z,31.23
2023-02-14T17:39:06.859Z,25.63
2023-02-14T17:41:35.720Z,21.77
2023-02-14T17:44:04.888Z,23.00
2023-02-14T17:46:33.188Z,18.87
2023-02-14T17:49:02.521Z,22.13
2023-02-14T17:51:30.390Z,26.57
2023-02-14T17:53:59.073Z,24.23
2023-02-14T17:56:27.666Z,25.37
2023-02-14T17:58:56.990Z,24.83
2023-02-14T18:01:26.978Z,18.73
2023-02-14T18:03:55.823Z,20.90
2023-02-14T18:06:23.760Z,29.90
2023-02-14T18:08:52.925Z,30.73
2023-02-14T18:11:21.680Z,21.73
2023-02-14T18:13:49.998Z,27.30
2023-02-14T18:16:20.136Z,28.87
2023-02-14T18:18:48.446Z,22.23
2023-02-14T18:21:18.831Z,32.67
2023-02-14T18:23:46.307Z,27.33
2023-02-14T18:26:15.552Z,23.10
2023-02-14T18:28:43.473Z,34.83
2023-02-14T18:31:12.839Z,25.73
2023-02-14T18:33:42.327Z,24.70
2023-02-14T18:36:12.747Z,25.67
2023-02-14T18:38:41.142Z,26.83
2023-02-14T18:41:10.936Z,28.20
2023-02-14T18:43:40.935Z,28.43
2023-02-14T18:46:10.423Z,19.10
2023-02-14T18:48:38.316Z,27.57
2023-02-14T18:51:08.634Z,23.03
2023-02-14T18:53:36.217Z,31.13
2023-02-14T18:56:05.328Z,27.93
2023-02-14T18:58:32.883Z,28.30
2023-02-14T19:01:00.829Z,23.10
2023-02-14T19:03:28.484Z,27.73
2023-02-14T19:06:00.026Z,27.07
2023-02-14T19:08:31.141Z,29.00
2023-02-14T19:10:59.022Z,18.77
2023-02-14T19:13:29.202Z,25.63
2023-02-14T19:15:57.219Z,28.90
2023-02-14T19:18:25.753Z,22.73
2023-02-14T19:20:53.605Z,18.93
2023-02-14T19:23:21.624Z,23.07
2023-02-14T19:25:50.558Z,19.90
2023-02-14T19:28:18.054Z,21.33
2023-02-14T19:30:45.545Z,18.83
2023-02-14T19:33:13.101Z,24.63
2023-02-14T19:35:40.666Z,29.27
2023-02-14T19:38:08.114Z,21.27
2023-02-14T19:40:35.561Z,18.90
2023-02-14T19:43:04.390Z,21.80
2023-02-14T19:45:32.493Z,17.83
2023-02-14T19:48:01.592Z,14.97
2023-02-14T19:50:30.807Z,19.90
2023-02-14T19:52:58.436Z,19.73
2023-02-14T19:55:27.527Z,24.87
2023-02-14T19:57:55.655Z,19.93
2023-02-14T20:00:25.139Z,20.47
2023-02-14T20:02:53.203Z,20.37
2023-02-14T20:05:21.555Z,21.80
2023-02-14T20:07:51.744Z,19.93
2023-02-14T20:10:19.578Z,20.77
2023-02-14T20:12:47.254Z,19.73
2023-02-14T20:15:14.789Z,18.87
2023-02-14T20:17:43.592Z,19.17
2023-02-14T20:20:13.619Z,18.30
2023-02-14T20:22:41.602Z,14.83
2023-02-14T20:25:09.732Z,17.50
2023-02-14T20:27:38.190Z,20.50
2023-02-14T20:30:08.972Z,16.77
2023-02-14T20:32:37.177Z,18.80
2023-02-14T20:35:06.515Z,19.93
2023-02-14T20:37:33.978Z,20.03
2023-02-14T20:40:01.436Z,17.63
2023-02-14T20:42:28.894Z,16.17
2023-02-14T20:44:56.358Z,19.50
2023-02-14T20:47:23.819Z,16.47
2023-02-14T20:49:51.266Z,13.27
2023-02-14T20:52:20.076Z,18.37
2023-02-14T20:54:47.527Z,15.20
2023-02-14T20:57:14.997Z,15.30
2023-02-14T20:59:44.707Z,19.13
2023-02-14T21:02:12.658Z,15.27
2023-02-14T21:04:40.260Z,19.27
2023-02-14T21:07:10.129Z,25.03
2023-02-14T21:09:39.015Z,22.10
2023-02-14T21:12:07.565Z,18.70
2023-02-14T21:14:35.096Z,25.00
2023-02-14T21:17:04.256Z,22.70
2023-02-14T21:19:32.302Z,20.63
2023-02-14T21:21:59.763Z,15.10
2023-02-14T21:24:27.241Z,18.00
2023-02-14T21:26:56.052Z,17.23
2023-02-14T21:29:23.533Z,16.00
2023-02-14T21:31:51.158Z,12.67
2023-02-14T21:34:18.718Z,16.33
2023-02-14T21:36:46.192Z,18.43
2023-02-14T21:39:14.281Z,22.57
2023-02-14T21:41:41.748Z,23.67
2023-02-14T21:44:31.060Z,23.73
2023-02-14T21:46:57.558Z,23.90
2023-02-14T21:49:42.633Z,21.17
2023-02-14T21:52:10.090Z,21.17
2023-02-14T21:54:37.770Z,22.43
2023-02-14T21:57:05.242Z,21.77
2023-02-14T21:59:34.496Z,22.40
2023-02-14T22:02:01.969Z,21.23
2023-02-14T22:04:29.430Z,19.40
2023-02-14T22:06:57.052Z,19.73
2023-02-14T22:09:24.550Z,23.20
2023-02-14T22:11:52.035Z,18.23
2023-02-14T22:14:19.746Z,17.47
2023-02-14T22:16:48.786Z,21.00
2023-02-14T22:19:17.068Z,13.83
2023-02-14T22:21:44.690Z,21.93
2023-02-14T22:24:12.527Z,17.57
2023-02-14T22:26:40.819Z,18.33
2023-02-14T22:29:11.500Z,14.07
2023-02-14T22:31:41.126Z,15.60
2023-02-14T22:34:12.296Z,16.57
2023-02-14T22:36:39.808Z,15.50
2023-02-14T22:39:07.419Z,15.97
2023-02-14T22:41:37.608Z,17.37
2023-02-14T22:44:05.824Z,18.77
2023-02-14T22:46:33.574Z,18.37
2023-02-14T22:49:01.069Z,13.23
2023-02-14T22:51:31.991Z,19.03
2023-02-14T22:54:02.008Z,17.07
2023-02-14T22:56:31.823Z,19.00
2023-02-14T22:59:02.495Z,15.67
2023-02-14T23:01:29.997Z,18.47
2023-02-14T23:03:59.684Z,12.97
2023-02-14T23:06:29.336Z,14.87
2023-02-14T23:08:58.503Z,23.17
2023-02-14T23:11:28.165Z,19.23
2023-02-14T23:14:13.925Z,14.83
2023-02-14T23:17:04.987Z,14.63
2023-02-14T23:19:51.821Z,15.90
2023-02-14T23:22:21.515Z,13.73
2023-02-14T23:24:52.670Z,16.17
2023-02-14T23:27:22.652Z,22.50
2023-02-14T23:29:50.247Z,17.63
2023-02-14T23:32:18.080Z,18.63
2023-02-14T23:34:46.309Z,18.30
2023-02-14T23:37:14.916Z,21.13
2023-02-14T23:39:42.567Z,22.97
2023-02-14T23:42:13.626Z,12.13
2023-02-14T23:44:42.736Z,15.70
2023-02-14T23:47:10.946Z,17.07
2023-02-14T23:49:40.806Z,20.17
2023-02-14T23:52:10.652Z,18.97
2023-02-14T23:54:39.145Z,16.83
2023-02-14T23:57:08.266Z,24.03
2023-02-14T23:59:37.078Z,20.20
